Time;durP1;ratioP1;P1;durP2;ratioP2;P2;SDS_P1;SDS_P2;PMS_P1;PMS_P2;Temp;Humidity;BMP_temperature;BMP_pressure;BME280_temperature;BME280_humidity;BME280_pressure;Samples;Min_cycle;Max_cycle;Signal;HPM_P1;HPM_P2
2022/11/18 00:02:10;;;;;;;5.90;4.57;;;21.60;50.10;;;;;;5031462;28;20045;-64
2022/11/18 00:04:37;;;;;;;6.30;4.90;;;21.60;50.10;;;;;;5030622;28;20053;-62
2022/11/18 00:07:04;;;;;;;5.18;4.38;;;21.60;50.10;;;;;;5031060;28;20141;-62
2022/11/18 00:09:31;;;;;;;5.65;5.00;;;21.60;50.10;;;;;;5030208;28;20451;-62
2022/11/18 00:14:46;;;;;;;7.25;4.78;;;21.60;50.00;;;;;;5030912;28;20046;-62
2022/11/18 00:17:13;;;;;;;4.50;4.00;;;21.60;50.10;;;;;;5030658;28;20050;-63
2022/11/18 00:19:40;;;;;;;5.13;4.35;;;21.60;50.00;;;;;;5030622;28;20091;-62
2022/11/18 00:22:11;;;;;;;5.60;4.43;;;21.50;50.00;;;;;;5030807;28;20052;-62
2022/11/18 00:24:38;;;;;;;5.60;4.57;;;21.60;50.10;;;;;;5030249;28;20049;-62
2022/11/18 00:27:05;;;;;;;6.38;5.00;;;21.50;50.00;;;;;;5031010;28;20133;-62
2022/11/18 00:29:32;;;;;;;5.07;4.15;;;21.50;50.00;;;;;;5030056;28;20049;-62
2022/11/18 00:31:59;;;;;;;6.40;4.65;;;21.50;50.00;;;;;;5031227;28;20488;-62
2022/11/18 00:34:26;;;;;;;5.93;4.50;;;21.50;50.00;;;;;;5012605;28;20064;-62
2022/11/18 00:36:53;;;;;;;5.55;4.22;;;21.50;50.00;;;;;;5030466;28;20041;-62
2022/11/18 00:39:21;;;;;;;5.70;4.35;;;21.50;50.00;;;;;;5030113;28;20081;-62
2022/11/18 00:44:36;;;;;;;5.45;4.60;;;21.50;50.00;;;;;;5028460;28;20665;-62
2022/11/18 00:47:03;;;;;;;4.35;3.95;;;21.50;50.00;;;;;;5033173;28;20049;-65
2022/11/18 00:49:30;;;;;;;6.65;4.80;;;21.50;50.00;;;;;;5033135;28;20507;-64
2022/11/18 00:51:57;;;;;;;4.15;3.78;;;21.50;50.00;;;;;;5033646;28;20041;-65
2022/11/18 00:54:24;;;;;;;5.43;4.30;;;21.50;50.50;;;;;;5015503;28;20049;-65
2022/11/18 00:56:51;;;;;;;5.43;4.40;;;21.50;49.90;;;;;;5034247;28;20041;-66
2022/11/18 00:59:18;;;;;;;3.90;3.50;;;21.50;49.90;;;;;;5032390;28;20081;-65
2022/11/18 01:01:47;;;;;;;4.00;3.53;;;21.50;49.90;;;;;;5015927;28;20144;-66
2022/11/18 01:04:15;;;;;;;4.97;4.28;;;21.50;50.00;;;;;;5033100;28;20046;-65
2022/11/18 01:06:43;;;;;;;5.00;4.15;;;21.50;49.90;;;;;;5032709;28;20041;-66
2022/11/18 01:09:10;;;;;;;5.43;4.10;;;21.50;50.00;;;;;;5014477;28;20048;-65
2022/11/18 01:14:25;;;;;;;5.45;4.47;;;21.50;50.00;;;;;;5033341;28;20458;-65
2022/11/18 01:16:54;;;;;;;4.63;3.72;;;21.50;50.00;;;;;;5028302;28;20448;-66
2022/11/18 01:19:22;;;;;;;5.32;4.05;;;21.50;50.00;;;;;;5032922;28;20141;-65
2022/11/18 01:21:50;;;;;;;5.25;4.20;;;21.50;50.00;;;;;;5033305;28;20059;-66
2022/11/18 01:24:17;;;;;;;5.03;4.43;;;21.50;50.00;;;;;;5032870;28;20384;-65
2022/11/18 01:26:44;;;;;;;5.10;4.60;;;21.50;50.00;;;;;;5033121;28;20076;-65
2022/11/18 01:29:11;;;;;;;4.18;3.65;;;21.50;50.00;;;;;;5032775;28;20125;-65
2022/11/18 01:31:39;;;;;;;4.80;3.72;;;21.40;50.00;;;;;;5014893;28;20045;-65
2022/11/18 01:34:27;;;;;;;3.80;3.42;;;21.40;50.50;;;;;;5017263;28;20053;-65
2022/11/18 01:36:56;;;;;;;4.15;3.75;;;21.40;50.00;;;;;;5032136;28;20594;-65
2022/11/18 01:39:23;;;;;;;5.47;3.60;;;21.40;49.90;;;;;;5032610;28;20049;-65
2022/11/18 01:41:50;;;;;;;4.97;3.88;;;21.40;50.00;;;;;;4995025;28;20562;-65
2022/11/18 01:44:57;;;;;;;4.30;3.63;;;21.40;50.00;;;;;;5013133;28;20464;-65
2022/11/18 01:47:34;;;;;;;3.97;3.40;;;21.40;50.00;;;;;;5008749;28;20046;-65
2022/11/18 01:50:02;;;;;;;4.15;3.75;;;21.40;50.00;;;;;;5012106;28;20145;-66
2022/11/18 01:52:31;;;;;;;4.68;3.88;;;21.40;50.00;;;;;;5012536;28;20481;-65
2022/11/18 01:55:03;;;;;;;5.05;4.18;;;21.40;50.00;;;;;;4978791;28;20451;-65
2022/11/18 01:57:32;;;;;;;4.95;3.88;;;21.40;50.00;;;;;;5012901;28;20421;-65
2022/11/18 02:00:02;;;;;;;4.57;3.63;;;21.40;50.00;;;;;;5012110;28;20077;-65
2022/11/18 02:02:32;;;;;;;4.20;3.28;;;21.50;50.00;;;;;;4995795;28;20101;-65
2022/11/18 02:05:01;;;;;;;4.78;3.53;;;21.40;50.00;;;;;;5012575;28;20065;-65
2022/11/18 02:07:30;;;;;;;4.13;3.72;;;21.40;50.00;;;;;;4994684;28;20081;-65
2022/11/18 02:10:01;;;;;;;3.58;3.28;;;21.40;49.90;;;;;;5012257;28;20377;-65
2022/11/18 02:12:28;;;;;;;4.28;3.53;;;21.40;49.90;;;;;;5011776;28;20045;-65
2022/11/18 02:14:56;;;;;;;3.80;3.38;;;21.50;50.50;;;;;;4995430;28;20061;-62
2022/11/18 02:17:53;;;;;;;3.97;3.58;;;21.50;50.00;;;;;;5012079;28;20050;-65
2022/11/18 02:20:28;;;;;;;3.50;3.20;;;21.40;49.90;;;;;;4992248;28;20053;-65
2022/11/18 02:23:30;;;;;;;4.45;3.40;;;21.50;49.90;;;;;;5011682;28;20139;-65
2022/11/18 02:26:36;;;;;;;4.40;4.00;;;21.40;49.80;;;;;;5011868;28;20554;-65
2022/11/18 02:29:16;;;;;;;3.47;3.15;;;21.50;49.90;;;;;;5012151;28;20052;-65
2022/11/18 02:32:03;;;;;;;3.22;2.92;;;21.40;49.80;;;;;;5011025;28;20060;-65
2022/11/18 02:34:47;;;;;;;3.42;3.13;;;21.50;49.90;;;;;;5031995;28;20056;-61
2022/11/18 02:37:29;;;;;;;3.53;3.10;;;21.40;49.80;;;;;;5007638;28;20124;-65
2022/11/18 02:40:11;;;;;;;3.30;3.00;;;21.40;49.80;;;;;;4994313;28;20050;-65
2022/11/18 02:42:40;;;;;;;3.95;2.92;;;21.40;49.80;;;;;;5011605;28;20045;-65
2022/11/18 02:45:13;;;;;;;3.80;3.30;;;21.40;49.80;;;;;;5012602;28;20119;-66
2022/11/18 02:47:43;;;;;;;4.53;3.10;;;21.40;49.80;;;;;;5011897;28;20050;-65
2022/11/18 02:50:16;;;;;;;3.55;3.22;;;21.40;49.80;;;;;;5010035;28;20407;-65
2022/11/18 02:52:47;;;;;;;4.18;3.17;;;21.40;49.80;;;;;;5009427;28;20081;-65
2022/11/18 02:55:15;;;;;;;3.58;2.83;;;21.40;49.80;;;;;;5011212;28;20042;-65
2022/11/18 02:57:44;;;;;;;3.35;3.05;;;21.40;49.80;;;;;;5011742;28;20049;-66
2022/11/18 03:00:12;;;;;;;3.10;2.80;;;21.40;49.80;;;;;;5011303;28;20052;-66
2022/11/18 03:02:42;;;;;;;4.47;3.20;;;21.40;49.80;;;;;;4994150;28;20440;-63
2022/11/18 03:05:23;;;;;;;3.40;2.85;;;21.40;49.80;;;;;;5011813;28;20050;-66
2022/11/18 03:07:55;;;;;;;4.30;3.00;;;21.40;49.80;;;;;;5011290;28;20132;-65
2022/11/18 03:10:26;;;;;;;3.63;2.90;;;21.40;49.80;;;;;;5011586;28;20227;-66
2022/11/18 03:13:11;;;;;;;5.72;3.33;;;21.40;49.80;;;;;;5010697;28;20046;-65
2022/11/18 03:16:05;;;;;;;3.58;3.25;;;21.40;50.40;;;;;;5012289;28;20077;-65
2022/11/18 03:18:52;;;;;;;3.05;2.70;;;21.40;49.80;;;;;;4993511;28;20046;-65
2022/11/18 03:21:40;;;;;;;3.70;3.28;;;21.40;49.80;;;;;;5011322;28;20125;-65
2022/11/18 03:24:15;;;;;;;3.15;2.58;;;21.40;49.80;;;;;;5006504;28;20059;-65
2022/11/18 03:26:50;;;;;;;3.13;2.83;;;21.40;49.80;;;;;;5011449;28;20094;-65
2022/11/18 03:29:22;;;;;;;2.97;2.63;;;21.30;49.80;;;;;;5011006;28;20129;-65
2022/11/18 03:31:55;;;;;;;2.53;2.33;;;21.30;49.80;;;;;;5012712;28;20530;-65
2022/11/18 03:34:42;;;;;;;3.17;2.83;;;21.40;49.80;;;;;;5015336;28;20124;-65
2022/11/18 03:37:13;;;;;;;2.70;2.50;;;21.40;49.80;;;;;;5014731;28;20052;-65
2022/11/18 03:39:48;;;;;;;2.80;2.50;;;21.40;49.80;;;;;;5014999;28;20076;-65
2022/11/18 03:42:31;;;;;;;3.10;2.78;;;21.40;49.80;;;;;;4998175;28;20089;-65
2022/11/18 03:45:06;;;;;;;3.33;2.75;;;21.40;49.80;;;;;;5015057;28;20054;-66
2022/11/18 03:47:41;;;;;;;3.05;2.53;;;21.40;49.80;;;;;;5014719;28;20085;-65
2022/11/18 03:50:17;;;;;;;3.03;2.75;;;21.30;49.80;;;;;;5014746;28;20100;-65
2022/11/18 03:52:47;;;;;;;3.47;2.88;;;21.30;49.80;;;;;;5014791;28;20081;-65
2022/11/18 03:55:19;;;;;;;2.63;2.40;;;21.30;49.80;;;;;;5013253;28;20121;-65
2022/11/18 03:58:05;;;;;;;2.55;2.35;;;21.30;49.80;;;;;;5011869;28;20092;-62
2022/11/18 04:00:37;;;;;;;2.67;2.40;;;21.30;49.80;;;;;;5014454;28;20085;-66
2022/11/18 04:03:04;;;;;;;4.00;2.75;;;21.30;49.80;;;;;;5013842;28;20128;-65
2022/11/18 04:05:35;;;;;;;2.88;2.67;;;21.30;49.80;;;;;;4997206;28;20081;-66
2022/11/18 04:08:04;;;;;;;2.65;2.45;;;21.30;49.80;;;;;;5014200;28;20046;-66
2022/11/18 04:10:38;;;;;;;2.45;2.22;;;21.30;49.80;;;;;;5014742;28;20050;-65
2022/11/18 04:13:11;;;;;;;3.13;2.67;;;21.40;49.90;;;;;;5014180;28;20050;-65
2022/11/18 04:15:40;;;;;;;3.78;2.92;;;21.30;49.80;;;;;;4997024;28;20082;-65
2022/11/18 04:18:08;;;;;;;3.60;2.60;;;21.30;49.80;;;;;;5013884;28;20057;-65
2022/11/18 04:20:36;;;;;;;2.60;2.40;;;21.40;49.90;;;;;;5014293;28;20479;-65
2022/11/18 04:23:05;;;;;;;2.50;2.30;;;21.30;49.80;;;;;;5014481;28;20076;-65
2022/11/18 04:25:33;;;;;;;1.92;1.83;;;21.30;49.80;;;;;;5031921;28;20050;-65
2022/11/18 04:28:00;;;;;;;2.63;2.38;;;21.30;49.80;;;;;;5028838;28;20045;-66
2022/11/18 04:30:28;;;;;;;2.40;2.20;;;21.30;49.80;;;;;;5018104;28;20041;-65
2022/11/18 04:32:55;;;;;;;2.67;2.00;;;21.40;49.80;;;;;;5033351;28;20045;-66
2022/11/18 04:35:22;;;;;;;3.05;2.75;;;21.40;49.80;;;;;;5033560;28;20052;-65
2022/11/18 04:37:49;;;;;;;3.95;2.63;;;21.30;49.80;;;;;;5033490;28;20053;-65
2022/11/18 04:40:16;;;;;;;2.40;2.20;;;21.40;49.80;;;;;;5033589;28;20053;-65
2022/11/18 04:42:44;;;;;;;2.38;2.13;;;21.40;49.80;;;;;;5032769;28;20097;-65
2022/11/18 04:45:11;;;;;;;2.38;2.17;;;21.40;49.70;;;;;;5033033;28;20419;-65
2022/11/18 04:47:38;;;;;;;2.25;2.05;;;21.30;49.60;;;;;;5015859;28;20041;-63
2022/11/18 04:50:05;;;;;;;2.40;2.20;;;21.40;49.70;;;;;;5030613;28;20411;-65
2022/11/18 04:52:33;;;;;;;2.97;2.42;;;21.40;49.70;;;;;;5008641;28;20088;-65
2022/11/18 04:55:00;;;;;;;2.40;2.20;;;21.40;49.70;;;;;;5025365;28;20083;-65
2022/11/18 04:57:27;;;;;;;2.22;2.03;;;21.40;49.70;;;;;;5023848;28;20072;-65
2022/11/18 04:59:54;;;;;;;2.45;2.25;;;21.40;49.70;;;;;;5017423;28;20050;-62
2022/11/18 05:02:21;;;;;;;2.92;2.40;;;21.40;49.70;;;;;;5028453;28;20045;-65
2022/11/18 05:04:48;;;;;;;2.30;2.10;;;21.30;49.60;;;;;;5011191;28;20052;-65
2022/11/18 05:07:15;;;;;;;2.45;2.22;;;21.40;49.70;;;;;;5009698;28;20053;-65
2022/11/18 05:09:43;;;;;;;3.20;2.15;;;21.30;49.60;;;;;;5014940;28;20072;-66
2022/11/18 05:15:00;;;;;;;2.20;2.00;;;21.30;49.60;;;;;;5033231;28;20068;-65
2022/11/18 05:17:28;;;;;;;3.35;2.38;;;21.30;49.60;;;;;;5032072;28;20045;-65
2022/11/18 05:19:55;;;;;;;2.08;1.98;;;21.30;49.60;;;;;;5023336;28;20263;-65
2022/11/18 05:22:22;;;;;;;2.50;2.15;;;21.30;49.60;;;;;;5029565;28;20451;-65
2022/11/18 05:24:49;;;;;;;2.03;1.83;;;21.30;49.60;;;;;;5028111;28;20227;-65
2022/11/18 05:27:16;;;;;;;2.00;1.90;;;21.30;49.60;;;;;;5021156;28;20104;-65
2022/11/18 05:29:43;;;;;;;2.05;1.85;;;21.30;49.60;;;;;;5027541;28;20042;-62
2022/11/18 05:32:11;;;;;;;2.03;1.83;;;21.30;49.60;;;;;;5001874;28;20050;-65
2022/11/18 05:34:40;;;;;;;2.97;2.72;;;21.30;49.60;;;;;;5007674;28;20461;-65
2022/11/18 05:37:07;;;;;;;3.42;2.80;;;21.30;49.60;;;;;;5002574;28;20171;-65
2022/11/18 05:39:34;;;;;;;3.03;2.58;;;21.30;49.40;;;;;;5024408;28;20049;-65
2022/11/18 05:44:50;;;;;;;3.45;2.85;;;21.30;49.10;;;;;;5023733;28;20137;-65
2022/11/18 05:47:24;;;;;;;3.80;3.40;;;21.30;49.10;;;;;;5023327;28;20055;-66
2022/11/18 05:49:51;;;;;;;4.40;3.08;;;21.30;49.00;;;;;;4979414;28;20046;-66
2022/11/18 05:52:18;;;;;;;3.30;2.80;;;21.30;48.90;;;;;;5013144;28;20068;-66
2022/11/18 05:54:49;;;;;;;2.88;2.58;;;21.30;48.90;;;;;;5012107;28;20085;-66
2022/11/18 05:57:16;;;;;;;3.63;2.47;;;21.30;48.90;;;;;;5012391;28;20198;-66
2022/11/18 05:59:43;;;;;;;3.05;2.53;;;21.30;48.90;;;;;;5011032;28;20081;-66
2022/11/18 06:02:18;;;;;;;4.22;3.10;;;21.30;48.90;;;;;;5004780;28;20587;-66
2022/11/18 06:04:51;;;;;;;3.55;3.08;;;21.30;48.80;;;;;;5004559;28;20495;-66
2022/11/18 06:07:28;;;;;;;3.70;3.25;;;21.30;48.90;;;;;;5021614;28;20054;-66
2022/11/18 06:09:58;;;;;;;6.03;3.97;;;21.20;48.80;;;;;;5026028;28;20084;-62
2022/11/18 06:16:28;;;;;;;4.85;3.60;;;21.20;48.80;;;;;;5023323;28;20055;-65
2022/11/18 06:18:55;;;;;;;;;;;21.20;48.80;;;;;;5008873;28;20049;-62
2022/11/18 06:21:23;;;;;;;3.83;3.13;;;21.20;48.80;;;;;;5031026;28;19968;-66
2022/11/18 06:23:50;;;;;;;4.78;3.42;;;21.20;48.80;;;;;;5026756;28;20037;-63
2022/11/18 06:27:03;;;;;;;4.85;3.90;;;21.20;49.00;;;;;;5027787;28;20136;-63
2022/11/18 06:29:30;;;;;;;5.05;3.72;;;21.20;49.10;;;;;;4995844;28;20050;-65
2022/11/18 06:39:20;;;;;;;8.10;4.90;;;21.20;49.40;;;;;;5055900;23;20048;-68
2022/11/18 06:42:02;;;;;;;8.80;4.38;;;21.30;49.70;;;;;;5040135;28;20168;-64
2022/11/18 06:44:29;;;;;;;5.45;4.45;;;21.30;50.00;;;;;;5034758;28;20426;-68
2022/11/18 06:46:56;;;;;;;5.15;4.00;;;21.30;49.90;;;;;;5035561;28;20065;-64
2022/11/18 06:49:25;;;;;;;6.88;4.55;;;21.30;49.70;;;;;;5035830;28;20077;-68
2022/11/18 06:51:53;;;;;;;8.85;4.55;;;21.40;49.70;;;;;;5035615;28;20091;-65
2022/11/18 06:54:20;;;;;;;5.70;4.13;;;21.40;49.60;;;;;;5035130;28;20049;-68
2022/11/18 06:56:47;;;;;;;6.85;4.30;;;21.40;49.50;;;;;;5035620;28;20132;-64
2022/11/18 06:59:20;;;;;;;8.85;4.32;;;21.40;49.30;;;;;;5034982;28;20049;-64
2022/11/18 07:01:47;;;;;;;5.72;4.38;;;21.50;49.60;;;;;;5035250;28;20454;-62
2022/11/18 07:05:02;;;;;;;6.20;3.92;;;21.50;49.70;;;;;;5032936;28;20042;-65
2022/11/18 07:07:29;;;;;;;5.07;3.83;;;21.50;49.90;;;;;;5015887;28;20500;-63
2022/11/18 07:09:56;;;;;;;6.18;4.40;;;21.50;50.10;;;;;;4999444;28;20077;-65
2022/11/18 07:12:23;;;;;;;5.18;4.00;;;21.60;50.40;;;;;;5016608;28;20452;-64
2022/11/18 07:14:50;;;;;;;7.05;4.45;;;21.60;50.60;;;;;;5015626;28;20065;-65
2022/11/18 07:17:17;;;;;;;7.85;4.97;;;21.60;50.50;;;;;;5015623;28;20052;-64
2022/11/18 07:19:45;;;;;;;5.82;4.18;;;21.70;50.50;;;;;;5017803;28;20092;-64
2022/11/18 07:22:12;;;;;;;6.00;4.57;;;21.70;50.60;;;;;;5015562;28;20050;-63
2022/11/18 07:24:39;;;;;;;8.70;5.47;;;21.80;50.70;;;;;;5015326;28;20480;-66
2022/11/18 07:27:07;;;;;;;6.55;4.30;;;21.80;50.70;;;;;;5015431;28;20097;-66
2022/11/18 07:29:34;;;;;;;7.60;4.82;;;21.90;50.70;;;;;;5015490;28;20050;-67
2022/11/18 07:32:01;;;;;;;8.88;5.28;;;21.90;50.40;;;;;;5015995;28;20057;-65
2022/11/18 07:34:28;;;;;;;8.60;5.35;;;22.00;50.30;;;;;;5015334;28;20068;-67
2022/11/18 07:36:55;;;;;;;9.27;5.65;;;22.00;50.10;;;;;;5015593;28;20053;-65
2022/11/18 07:39:22;;;;;;;10.70;5.43;;;22.00;50.00;;;;;;5015301;28;20077;-64
2022/11/18 07:41:49;;;;;;;9.27;5.63;;;22.10;50.10;;;;;;4997894;28;20046;-65
2022/11/18 07:44:17;;;;;;;8.57;5.65;;;22.10;50.10;;;;;;5016279;28;20103;-64
2022/11/18 07:46:44;;;;;;;10.07;5.72;;;22.20;50.10;;;;;;5015868;28;20052;-69
2022/11/18 07:49:11;;;;;;;9.68;6.03;;;22.20;50.00;;;;;;5015668;28;20435;-63
2022/11/18 08:18:08;;;;;;;7.80;5.63;;;22.50;49.00;;;;;;4994414;28;20050;-62
2022/11/18 08:28:31;;;;;;;7.88;4.82;;;22.40;49.80;;;;;;5310803;23;20057;-61
2022/11/18 08:30:58;;;;;;;7.43;4.75;;;22.40;49.80;;;;;;5001722;28;20102;-63
2022/11/18 08:33:25;;;;;;;8.32;4.88;;;22.40;49.90;;;;;;4998805;28;20054;-62
2022/11/18 08:35:52;;;;;;;7.43;4.75;;;22.40;49.90;;;;;;4998369;28;20050;-62
2022/11/18 08:38:19;;;;;;;6.18;4.72;;;22.30;49.80;;;;;;4997917;28;20101;-61
2022/11/18 08:40:47;;;;;;;6.63;4.85;;;22.40;49.70;;;;;;4998492;28;20382;-65
2022/11/18 08:43:14;;;;;;;5.55;4.65;;;22.40;49.60;;;;;;4998495;28;20467;-61
2022/11/18 08:46:33;;;;;;;9.55;5.05;;;22.30;49.50;;;;;;4991057;28;20053;-65
2022/11/18 08:53:05;;;;;;;9.00;5.03;;;22.30;49.30;;;;;;5001621;23;20062;-66
2022/11/18 08:55:32;;;;;;;7.93;5.22;;;22.30;49.30;;;;;;4977807;28;20148;-62
2022/11/18 08:57:59;;;;;;;5.88;4.60;;;22.30;49.40;;;;;;4978949;28;20058;-62
2022/11/18 09:00:27;;;;;;;6.38;4.78;;;22.30;49.50;;;;;;4957422;28;20035;-62
2022/11/18 09:02:54;;;;;;;10.30;5.25;;;22.30;49.60;;;;;;4978092;28;20126;-67
2022/11/18 09:05:21;;;;;;;7.60;4.63;;;22.30;49.70;;;;;;4978141;28;20078;-62
2022/11/18 09:08:43;;;;;;;7.18;4.68;;;22.30;49.70;;;;;;4956772;28;20082;-61
2022/11/18 09:14:14;;;;;;;9.20;5.07;;;22.30;49.70;;;;;;6098240;23;20009;-61
2022/11/18 09:27:30;;;;;;;7.05;4.28;;;22.30;49.70;;;;;;4942295;28;20087;-67
2022/11/18 09:29:57;;;;;;;9.73;4.97;;;22.30;49.90;;;;;;4937490;29;20418;-66
2022/11/18 09:33:19;;;;;;;6.60;4.68;;;22.30;50.10;;;;;;4948118;29;20050;-66
2022/11/18 09:47:26;;;;;;;6.93;5.22;;;22.40;49.90;;;;;;5855405;23;20098;-63
2022/11/18 09:49:58;;;;;;;7.00;5.13;;;22.40;49.80;;;;;;4926582;29;20565;-66
2022/11/18 09:53:05;;;;;;;7.28;4.50;;;22.40;49.80;;;;;;4957718;28;20502;-67
2022/11/18 09:56:04;;;;;;;8.07;5.22;;;22.40;49.90;;;;;;4953847;29;20069;-65
2022/11/18 09:58:35;;;;;;;6.53;4.72;;;22.40;49.80;;;;;;4954819;28;20050;-63
2022/11/18 10:01:08;;;;;;;8.13;5.40;;;22.40;49.70;;;;;;4944717;29;20058;-66
2022/11/18 10:03:57;;;;;;;5.97;4.53;;;22.40;49.60;;;;;;4937701;29;20127;-63
2022/11/18 10:09:56;;;;;;;6.43;4.57;;;22.40;49.70;;;;;;5139903;23;20121;-64
2022/11/18 10:12:36;;;;;;;8.02;4.22;;;22.40;49.70;;;;;;4963684;28;20408;-62
2022/11/18 10:15:23;;;;;;;;;;;22.40;49.50;;;;;;4977380;28;20047;-66
2022/11/18 10:18:24;;;;;;;5.57;4.32;;;22.40;49.50;;;;;;4976989;28;19965;-63
2022/11/18 10:21:38;;;;;;;7.20;5.15;;;22.40;49.60;;;;;;4977192;28;20051;-63
2022/11/18 10:24:17;;;;;;;6.00;4.30;;;22.40;49.60;;;;;;4962703;28;20083;-65
2022/11/18 10:26:45;;;;;;;6.97;4.27;;;22.40;49.50;;;;;;4977661;28;20058;-63
2022/11/18 10:29:12;;;;;;;5.45;4.30;;;22.40;49.60;;;;;;4977097;28;20050;-64
2022/11/18 10:32:04;;;;;;;8.73;4.72;;;22.40;49.80;;;;;;4976923;28;20060;-64
2022/11/18 10:34:33;;;;;;;5.82;3.90;;;22.50;49.90;;;;;;4977027;28;20053;-63
2022/11/18 10:37:20;;;;;;;5.75;3.70;;;22.50;49.90;;;;;;4977427;28;20051;-65
2022/11/18 10:40:02;;;;;;;6.23;4.77;;;22.40;49.80;;;;;;4977360;28;20046;-66
2022/11/18 10:43:01;;;;;;;6.63;3.42;;;22.50;49.80;;;;;;4975948;28;20485;-64
2022/11/18 11:05:30;;;;;;;4.22;3.20;;;22.50;49.80;;;;;;5421823;23;20492;-63
2022/11/18 11:08:03;;;;;;;5.20;3.13;;;22.50;49.70;;;;;;4998157;28;20072;-63
2022/11/18 11:10:54;;;;;;;4.47;3.72;;;22.50;49.60;;;;;;5001052;28;20053;-62
2022/11/18 11:13:25;;;;;;;5.65;3.20;;;22.50;49.50;;;;;;5015459;28;20057;-63
2022/11/18 11:15:56;;;;;;;5.18;3.33;;;22.50;49.40;;;;;;5015810;28;20060;-62
2022/11/18 11:18:41;;;;;;;6.75;3.50;;;22.50;49.30;;;;;;5015835;28;20073;-64
2022/11/18 11:21:58;;;;;;;7.03;3.45;;;22.50;49.20;;;;;;5014791;28;20041;-63
2022/11/18 11:24:59;;;;;;;5.72;3.30;;;22.60;49.20;;;;;;5008107;28;20042;-62
2022/11/18 11:31:27;;;;;;;5.30;3.92;;;22.50;49.30;;;;;;4997213;28;20116;-66
2022/11/18 11:34:34;;;;;;;7.07;3.88;;;22.50;49.60;;;;;;4980572;28;20054;-64
2022/11/18 11:37:27;;;;;;;4.70;3.10;;;22.60;49.80;;;;;;4995625;28;20058;-66
2022/11/18 11:40:32;;;;;;;4.88;3.30;;;22.60;50.00;;;;;;4997222;28;20097;-64
2022/11/18 11:43:22;;;;;;;9.82;3.35;;;22.60;50.00;;;;;;4987183;28;20054;-66
2022/11/18 11:46:33;;;;;;;10.48;3.55;;;22.60;49.80;;;;;;4997033;28;20046;-66
2022/11/18 11:49:38;;;;;;;7.53;3.38;;;22.60;49.90;;;;;;4978109;28;20053;-66
2022/11/18 11:52:16;;;;;;;4.43;3.20;;;22.60;49.90;;;;;;4996665;28;20077;-65
2022/11/18 11:55:01;;;;;;;3.45;3.15;;;22.70;50.00;;;;;;4999670;28;20085;-64
2022/11/18 11:57:49;;;;;;;3.28;2.90;;;22.60;50.10;;;;;;4999311;28;20050;-69
2022/11/18 12:00:18;;;;;;;4.63;3.50;;;22.70;50.00;;;;;;4982369;28;20484;-66
2022/11/18 12:03:01;;;;;;;4.35;3.10;;;22.70;50.10;;;;;;5000201;28;20055;-62
2022/11/18 12:05:34;;;;;;;3.88;3.30;;;22.70;50.20;;;;;;5013624;28;20048;-63
2022/11/18 12:11:02;;;;;;;5.93;2.95;;;22.80;50.40;;;;;;5838044;23;20046;-64
2022/11/18 12:13:42;;;;;;;4.32;3.63;;;22.90;50.60;;;;;;4999418;28;20050;-63
2022/11/18 12:16:47;;;;;;;7.40;3.45;;;22.90;50.50;;;;;;4982394;28;20054;-64
2022/11/18 12:28:40;;;;;;;3.90;2.80;;;22.90;50.10;;;;;;4960988;28;20540;-63
2022/11/18 12:31:30;;;;;;;3.85;2.58;;;22.90;50.30;;;;;;4960090;29;20059;-64
2022/11/18 12:37:57;;;;;;;3.83;2.10;;;23.00;50.40;;;;;;5020388;23;19918;-68
2022/11/18 12:40:42;;;;;;;3.78;2.70;;;23.00;50.40;;;;;;4964355;28;20055;-68
2022/11/18 12:52:45;;;;;;;3.17;2.05;;;23.10;50.10;;;;;;6022156;23;20124;-62
2022/11/18 12:55:18;;;;;;;3.88;2.10;;;23.00;50.00;;;;;;4968130;28;20403;-62
2022/11/18 12:57:45;;;;;;;3.40;2.25;;;23.10;50.10;;;;;;4998704;28;20050;-62
2022/11/18 13:20:29;;;;;;;1.75;1.63;;;23.10;49.40;;;;;;4976165;28;20516;-69
2022/11/18 13:29:48;;;;;;;2.03;1.70;;;23.00;49.20;;;;;;4966713;28;20046;-67
2022/11/18 13:32:23;;;;;;;2.45;1.50;;;22.90;49.10;;;;;;4956626;29;20051;-64
2022/11/18 13:34:54;;;;;;;2.72;1.50;;;22.90;49.10;;;;;;4955988;29;20098;-65
2022/11/18 13:37:26;;;;;;;1.25;1.15;;;22.90;49.00;;;;;;4955703;29;20067;-63
2022/11/18 13:39:54;;;;;;;3.03;1.63;;;22.80;49.00;;;;;;4954715;29;20039;-62
2022/11/18 13:42:28;;;;;;;2.88;1.90;;;22.80;49.00;;;;;;4953709;29;20058;-61
2022/11/18 13:45:23;;;;;;;2.25;1.45;;;22.80;49.10;;;;;;4956015;29;20135;-61
2022/11/18 13:48:11;;;;;;;3.45;1.48;;;22.80;49.20;;;;;;4955099;29;20135;-66
2022/11/18 13:50:42;;;;;;;3.40;1.85;;;22.70;49.20;;;;;;4965319;28;20070;-64
2022/11/18 13:53:32;;;;;;;3.20;1.83;;;22.70;49.30;;;;;;4976456;28;20046;-62
2022/11/18 13:56:19;;;;;;;;;;;22.70;49.40;;;;;;4976153;28;20046;-64
2022/11/18 13:58:55;;;;;;;3.88;1.80;;;22.60;49.40;;;;;;4943622;29;19923;-66
2022/11/18 14:01:44;;;;;;;3.20;1.80;;;22.60;49.40;;;;;;4943228;28;20042;-67
2022/11/18 14:04:30;;;;;;;5.28;1.83;;;22.60;49.40;;;;;;4945853;28;20054;-64
2022/11/18 14:07:29;;;;;;;4.95;2.08;;;22.60;49.60;;;;;;4940957;28;20078;-65
2022/11/18 14:13:34;;;;;;;6.35;1.35;;;22.50;50.00;;;;;;4995745;28;20547;-65
2022/11/18 14:16:22;;;;;;;2.63;1.52;;;22.50;50.00;;;;;;4982889;28;20465;-64
2022/11/18 14:18:50;;;;;;;1.98;1.30;;;22.40;49.90;;;;;;4963002;28;20046;-64
2022/11/18 14:21:37;;;;;;;2.03;1.30;;;22.40;49.90;;;;;;4971900;28;20070;-61
2022/11/18 14:24:37;;;;;;;3.17;1.63;;;22.40;49.90;;;;;;4970042;28;20042;-61
2022/11/18 14:27:35;;;;;;;3.38;1.65;;;22.40;49.90;;;;;;4974135;28;20054;-64
2022/11/18 14:30:33;;;;;;;5.90;1.80;;;22.30;49.80;;;;;;4971875;28;20049;-61
2022/11/18 14:33:23;;;;;;;3.97;1.40;;;22.30;49.80;;;;;;4973850;28;20057;-64
2022/11/18 14:36:27;;;;;;;3.03;1.38;;;22.30;49.80;;;;;;4977191;28;20557;-64
2022/11/18 14:38:54;;;;;;;1.38;1.17;;;22.20;49.70;;;;;;4977343;28;20054;-64
2022/11/18 14:41:47;;;;;;;7.10;1.20;;;22.20;49.70;;;;;;4978523;28;20054;-64
2022/11/18 14:44:16;;;;;;;4.07;1.88;;;22.20;49.70;;;;;;4978151;28;20516;-64
2022/11/18 14:46:56;;;;;;;2.55;1.70;;;22.20;49.70;;;;;;4960759;28;20134;-63
2022/11/18 14:49:24;;;;;;;2.33;1.80;;;22.20;49.70;;;;;;4977922;28;20062;-64
2022/11/18 14:51:53;;;;;;;2.78;1.90;;;22.10;49.70;;;;;;4977938;28;20051;-65
2022/11/18 14:54:23;;;;;;;2.83;1.60;;;22.10;49.80;;;;;;4978243;28;20057;-64
2022/11/18 14:56:56;;;;;;;2.83;1.73;;;22.10;49.80;;;;;;4961125;28;20059;-65
2022/11/18 14:59:23;;;;;;;2.35;1.75;;;22.00;49.90;;;;;;4978129;28;20107;-65
2022/11/18 15:01:50;;;;;;;2.10;1.90;;;22.00;50.00;;;;;;4960938;28;20051;-62
2022/11/18 15:04:19;;;;;;;2.38;1.40;;;22.00;50.00;;;;;;4960596;28;20050;-65
2022/11/18 15:06:47;;;;;;;3.33;1.93;;;22.00;50.00;;;;;;4961367;28;20047;-64
2022/11/18 15:09:14;;;;;;;1.85;1.58;;;22.00;50.20;;;;;;4977759;28;20294;-65
2022/11/18 15:11:41;;;;;;;1.92;1.73;;;22.00;50.30;;;;;;4978183;28;20057;-64
2022/11/18 15:14:08;;;;;;;3.85;2.08;;;22.00;50.30;;;;;;4977624;28;20441;-65
2022/11/18 15:16:35;;;;;;;1.38;1.27;;;22.00;50.40;;;;;;4960721;28;20118;-65
2022/11/18 15:19:05;;;;;;;2.92;1.58;;;22.00;50.50;;;;;;4977987;28;20065;-64
2022/11/18 15:21:32;;;;;;;2.85;1.80;;;21.90;50.50;;;;;;4977509;28;20049;-64
2022/11/18 15:23:59;;;;;;;4.00;1.95;;;22.00;50.60;;;;;;4977689;28;20141;-64
2022/11/18 15:26:33;;;;;;;2.60;1.50;;;21.90;50.60;;;;;;4977820;28;20047;-64
2022/11/18 15:29:00;;;;;;;3.08;2.33;;;21.90;50.60;;;;;;4982086;28;20129;-65
2022/11/18 15:31:27;;;;;;;1.92;1.67;;;21.90;50.60;;;;;;4981456;28;20054;-64
2022/11/18 15:33:55;;;;;;;1.95;1.58;;;21.90;50.60;;;;;;4964888;28;20047;-64
2022/11/18 15:36:27;;;;;;;2.75;1.77;;;21.90;50.60;;;;;;4981358;28;20051;-61
2022/11/18 15:38:55;;;;;;;2.03;1.42;;;21.90;50.70;;;;;;4981781;28;20424;-64
2022/11/18 15:41:26;;;;;;;2.97;1.80;;;21.90;50.70;;;;;;4964408;28;20516;-64
2022/11/18 15:43:55;;;;;;;1.50;1.40;;;21.90;50.70;;;;;;4981659;28;20057;-65
2022/11/18 15:46:25;;;;;;;6.93;2.20;;;21.90;50.70;;;;;;4981608;28;20047;-65
2022/11/18 15:48:54;;;;;;;2.42;1.20;;;21.90;50.70;;;;;;4964405;28;20507;-65
2022/11/18 15:51:22;;;;;;;2.47;1.70;;;21.90;50.70;;;;;;4981212;28;20543;-65
2022/11/18 15:53:50;;;;;;;3.53;1.80;;;21.90;50.70;;;;;;4981107;28;20054;-65
2022/11/18 15:56:26;;;;;;;4.45;1.63;;;21.90;50.70;;;;;;4964403;28;20057;-64
2022/11/18 15:59:12;;;;;;;2.03;1.83;;;21.90;50.70;;;;;;4980904;28;20517;-65
2022/11/18 16:01:44;;;;;;;1.77;1.50;;;21.90;50.80;;;;;;4980919;28;20066;-65
2022/11/18 16:04:16;;;;;;;3.17;2.10;;;21.80;50.70;;;;;;4963956;28;20061;-65
2022/11/18 16:06:44;;;;;;;2.92;1.70;;;21.80;50.70;;;;;;4965069;28;20051;-65
2022/11/18 16:09:12;;;;;;;1.45;1.33;;;21.80;50.80;;;;;;4980975;28;20142;-64
2022/11/18 16:14:26;;;;;;;2.13;1.58;;;21.80;50.80;;;;;;4966887;28;20047;-65
2022/11/18 16:16:55;;;;;;;2.55;1.83;;;21.80;50.80;;;;;;4963849;28;20051;-64
2022/11/18 16:19:24;;;;;;;1.30;1.20;;;21.80;50.80;;;;;;4963778;28;20051;-64
2022/11/18 16:21:54;;;;;;;1.70;1.60;;;21.80;50.80;;;;;;4981087;28;20061;-64